KDET/DET METAR and TAF weather

Enter ICAO airport designator
Station Type Date Time Source
KDET METAR 2021/01/16 02:53 UTC NOAA

KDET 160253Z 19005KT 10SM CLR M01/M02 A2962 RMK AO2 SLP036 T10061022 51007


Station Type Date Time Source
KDET Decoded METAR 2021/01/16 02:53 UTC NOAA

DETROIT CITY AIRPORT, MI, United States (KDET) 42-25N 083-01W 190M
Jan 15, 2021 - 09:53 PM EST / 2021.01.16 0253 UTC
Wind: from the S (190 degrees) at 6 MPH (5 KT):0
Visibility: 10 mile(s):0
Sky conditions: clear
Temperature: 30.9 F (-0.6 C)
Windchill: 24 F (-4 C):1
Dew Point: 28.0 F (-2.2 C)
Relative Humidity: 88%
Pressure (altimeter): 29.62 in. Hg (1003 hPa)
Pressure tendency: 0.02 inches (0.7 hPa) higher than three hours ago
ob: KDET 160253Z 19005KT 10SM CLR M01/M02 A2962 RMK AO2 SLP036 T10061022 51007
cycle: 3

Station Type Date Time Source
KDET TAF 2021/01/15 18:39 UTC NOAA

TAF KDET 151736Z 1518/1618 20007KT 5SM -RASN BR BKN007 OVC020
FM152100 19005KT 3SM -SHSN BR SCT006 OVC015
FM152300 18004KT P6SM BKN020
FM160400 19005KT P6SM SCT035
FM161000 26003KT 4SM BR BKN070
FM161600 27004KT P6SM SCT010 BKN100

Example: see airport list